Hauptseite
METAR-TAF:

METAR-TAF

Flughäfen :

Mönchengladbach, Deutschland

Verkehrslandeplatz Mönchengladbach

Breite: 51-13-49N, Länge: 006-30-16E, Höhe: 38 m

Beobachtung

Neuester Wetterbericht von vor 29 Minuten, um 06:20 UTC
Wind 8 kt aus Süd/Südost, variierte zwischen Ost/Südost und Süd
Temperatur 15°C
Luftfeuchtigkeit 88%
Luftdruck 1007 hPa
Sichtweite 10 km oder mehr
keine Wolken unter 1500 m und keine Kumulonimbus oder Gewitterwolken

METAR: EDLN 200620Z 15008KT 120V190 CAVOK 15/13 Q1007

Zeit: 08:49 (06:49 UTC)

Prognose

Neuester Wetterbericht von vor 13 Stunden und 49 Minuten, um 17:00 UTC
Gültige Prognose vom 19 um 18 UTC bis 20 um 03 UTC
Wind 6 kt aus Süd/Südost
Sichtweite 10 km oder mehr
keine Wolken unter 1500 m und keine Kumulonimbus oder Gewitterwolken

TAF: EDLN 191700Z 1918/2003 15006KT CAVOK

Wetterbeobachtungen und Prognosen von mehr als 4000 Flughäfen (METAR und TAF Bericht).

Die verfügbaren Stationen werden durch gelbe und rote Markierungen auf der Karte dargestellt.

Führen Sie die Maus auf sie, um den Namen der Station zu sehen.

Darauf klicken, um die Beobachtung von Wetterbeobachtungen und Prognosen zu sehen.

Um die Karte zu ändern : klicken Sie auf den grünen Tasten mit einem schwarzen Kreuz Zum Vergrößern, auf den grünen Button mit einem Gedankenstrich zu verkleinern, oder auf die grünen Pfeile für benachbarte Karten.


METAR-TAF: